sensor_id;sensor_type;location;lat;lon;timestamp;P1;durP1;ratioP1;P2;durP2;ratioP2
55794;SDS011;41716;51.910;4.430;2023-05-07T00:01:05;11.13;;;6.57;;
55794;SDS011;41716;51.910;4.430;2023-05-07T00:06:07;11.25;;;6.75;;
55794;SDS011;41716;51.910;4.430;2023-05-07T00:11:11;12.68;;;8.15;;
55794;SDS011;41716;51.910;4.430;2023-05-07T00:16:13;15.18;;;9.55;;
55794;SDS011;41716;51.910;4.430;2023-05-07T00:21:15;15.57;;;10.68;;
55794;SDS011;41716;51.910;4.430;2023-05-07T00:26:18;15.07;;;10.45;;
55794;SDS011;41716;51.910;4.430;2023-05-07T00:31:20;16.02;;;10.40;;
55794;SDS011;41716;51.910;4.430;2023-05-07T00:36:24;13.23;;;9.23;;
55794;SDS011;41716;51.910;4.430;2023-05-07T00:41:28;15.60;;;9.38;;
55794;SDS011;41716;51.910;4.430;2023-05-07T00:46:31;16.50;;;8.60;;
55794;SDS011;41716;51.910;4.430;2023-05-07T00:51:34;11.70;;;8.13;;
55794;SDS011;41716;51.910;4.430;2023-05-07T00:56:38;13.50;;;8.25;;
55794;SDS011;41716;51.910;4.430;2023-05-07T01:01:40;12.52;;;7.20;;
55794;SDS011;41716;51.910;4.430;2023-05-07T01:06:42;11.35;;;7.78;;
55794;SDS011;41716;51.910;4.430;2023-05-07T01:11:46;11.32;;;7.65;;
55794;SDS011;41716;51.910;4.430;2023-05-07T01:16:49;12.85;;;8.82;;
55794;SDS011;41716;51.910;4.430;2023-05-07T01:21:52;14.20;;;8.73;;
55794;SDS011;41716;51.910;4.430;2023-05-07T01:27:03;14.68;;;8.93;;
55794;SDS011;41716;51.910;4.430;2023-05-07T01:32:05;12.93;;;8.50;;
55794;SDS011;41716;51.910;4.430;2023-05-07T01:37:08;11.40;;;8.65;;
55794;SDS011;41716;51.910;4.430;2023-05-07T01:42:11;13.90;;;8.68;;
55794;SDS011;41716;51.910;4.430;2023-05-07T01:47:13;14.60;;;8.13;;
55794;SDS011;41716;51.910;4.430;2023-05-07T01:52:15;11.25;;;7.93;;
55794;SDS011;41716;51.910;4.430;2023-05-07T01:57:18;14.52;;;8.40;;
55794;SDS011;41716;51.910;4.430;2023-05-07T02:02:20;11.57;;;8.13;;
55794;SDS011;41716;51.910;4.430;2023-05-07T02:07:22;11.00;;;7.70;;
55794;SDS011;41716;51.910;4.430;2023-05-07T02:12:25;11.25;;;7.10;;
55794;SDS011;41716;51.910;4.430;2023-05-07T02:17:27;14.17;;;7.57;;
55794;SDS011;41716;51.910;4.430;2023-05-07T02:22:31;10.38;;;7.13;;
55794;SDS011;41716;51.910;4.430;2023-05-07T02:27:34;9.82;;;6.80;;
55794;SDS011;41716;51.910;4.430;2023-05-07T02:32:36;9.43;;;6.20;;
55794;SDS011;41716;51.910;4.430;2023-05-07T02:37:38;8.63;;;6.25;;
55794;SDS011;41716;51.910;4.430;2023-05-07T02:42:41;9.00;;;5.80;;
55794;SDS011;41716;51.910;4.430;2023-05-07T02:47:42;9.05;;;5.25;;
55794;SDS011;41716;51.910;4.430;2023-05-07T02:52:44;7.65;;;5.38;;
55794;SDS011;41716;51.910;4.430;2023-05-07T02:57:48;8.30;;;5.38;;
55794;SDS011;41716;51.910;4.430;2023-05-07T03:02:50;8.63;;;5.40;;
55794;SDS011;41716;51.910;4.430;2023-05-07T03:07:51;6.95;;;5.32;;
55794;SDS011;41716;51.910;4.430;2023-05-07T03:12:55;8.10;;;5.95;;
55794;SDS011;41716;51.910;4.430;2023-05-07T03:17:56;9.97;;;5.80;;
55794;SDS011;41716;51.910;4.430;2023-05-07T03:22:58;8.52;;;5.65;;
55794;SDS011;41716;51.910;4.430;2023-05-07T03:28:01;9.02;;;5.47;;
55794;SDS011;41716;51.910;4.430;2023-05-07T03:33:03;7.87;;;5.23;;
55794;SDS011;41716;51.910;4.430;2023-05-07T03:38:05;8.77;;;5.00;;
55794;SDS011;41716;51.910;4.430;2023-05-07T03:43:08;8.02;;;4.55;;
55794;SDS011;41716;51.910;4.430;2023-05-07T03:48:09;9.50;;;4.10;;
55794;SDS011;41716;51.910;4.430;2023-05-07T03:53:11;6.80;;;4.30;;
55794;SDS011;41716;51.910;4.430;2023-05-07T03:58:14;7.13;;;4.93;;
55794;SDS011;41716;51.910;4.430;2023-05-07T04:03:16;6.90;;;4.60;;
55794;SDS011;41716;51.910;4.430;2023-05-07T04:08:18;8.27;;;4.75;;
55794;SDS011;41716;51.910;4.430;2023-05-07T04:13:21;6.78;;;4.72;;
55794;SDS011;41716;51.910;4.430;2023-05-07T04:18:23;9.13;;;4.75;;
55794;SDS011;41716;51.910;4.430;2023-05-07T04:23:24;6.95;;;4.30;;
55794;SDS011;41716;51.910;4.430;2023-05-07T04:28:27;8.30;;;4.70;;
55794;SDS011;41716;51.910;4.430;2023-05-07T04:33:29;7.27;;;4.10;;
55794;SDS011;41716;51.910;4.430;2023-05-07T04:38:31;7.10;;;4.47;;
55794;SDS011;41716;51.910;4.430;2023-05-07T04:43:34;7.20;;;4.88;;
55794;SDS011;41716;51.910;4.430;2023-05-07T04:48:36;7.35;;;4.90;;
55794;SDS011;41716;51.910;4.430;2023-05-07T04:53:37;7.22;;;4.95;;
55794;SDS011;41716;51.910;4.430;2023-05-07T04:58:41;6.85;;;5.35;;
55794;SDS011;41716;51.910;4.430;2023-05-07T05:03:42;8.93;;;5.50;;
55794;SDS011;41716;51.910;4.430;2023-05-07T05:08:44;7.88;;;5.22;;
55794;SDS011;41716;51.910;4.430;2023-05-07T05:13:47;6.95;;;5.05;;
55794;SDS011;41716;51.910;4.430;2023-05-07T05:18:49;8.40;;;4.90;;
55794;SDS011;41716;51.910;4.430;2023-05-07T05:23:52;7.95;;;5.28;;
55794;SDS011;41716;51.910;4.430;2023-05-07T05:28:55;7.35;;;5.43;;
55794;SDS011;41716;51.910;4.430;2023-05-07T05:33:56;8.95;;;5.75;;
55794;SDS011;41716;51.910;4.430;2023-05-07T05:38:58;9.68;;;6.00;;
55794;SDS011;41716;51.910;4.430;2023-05-07T05:44:01;8.65;;;5.00;;
55794;SDS011;41716;51.910;4.430;2023-05-07T05:49:03;8.68;;;5.95;;
55794;SDS011;41716;51.910;4.430;2023-05-07T05:54:04;10.15;;;6.47;;
55794;SDS011;41716;51.910;4.430;2023-05-07T05:59:07;11.27;;;6.38;;
55794;SDS011;41716;51.910;4.430;2023-05-07T06:04:09;8.90;;;6.13;;
55794;SDS011;41716;51.910;4.430;2023-05-07T06:09:11;9.52;;;6.45;;
55794;SDS011;41716;51.910;4.430;2023-05-07T06:14:14;9.38;;;6.47;;
55794;SDS011;41716;51.910;4.430;2023-05-07T06:19:15;8.02;;;5.78;;
55794;SDS011;41716;51.910;4.430;2023-05-07T06:24:23;9.35;;;6.63;;
55794;SDS011;41716;51.910;4.430;2023-05-07T06:29:27;10.15;;;6.57;;
55794;SDS011;41716;51.910;4.430;2023-05-07T06:34:30;8.55;;;6.55;;
55794;SDS011;41716;51.910;4.430;2023-05-07T06:39:32;9.27;;;6.90;;
55794;SDS011;41716;51.910;4.430;2023-05-07T06:44:35;10.80;;;6.85;;
55794;SDS011;41716;51.910;4.430;2023-05-07T06:49:37;10.77;;;6.90;;
55794;SDS011;41716;51.910;4.430;2023-05-07T06:54:38;8.80;;;6.03;;
55794;SDS011;41716;51.910;4.430;2023-05-07T06:59:41;9.23;;;5.78;;
55794;SDS011;41716;51.910;4.430;2023-05-07T07:04:43;12.68;;;6.03;;
55794;SDS011;41716;51.910;4.430;2023-05-07T07:09:45;7.78;;;5.55;;
55794;SDS011;41716;51.910;4.430;2023-05-07T07:14:48;7.07;;;5.43;;
55794;SDS011;41716;51.910;4.430;2023-05-07T07:19:49;7.55;;;5.07;;
55794;SDS011;41716;51.910;4.430;2023-05-07T07:24:51;6.88;;;4.65;;
55794;SDS011;41716;51.910;4.430;2023-05-07T07:29:54;7.43;;;5.60;;
55794;SDS011;41716;51.910;4.430;2023-05-07T07:34:56;9.52;;;6.20;;
55794;SDS011;41716;51.910;4.430;2023-05-07T07:39:57;9.07;;;5.93;;
55794;SDS011;41716;51.910;4.430;2023-05-07T07:45:00;7.95;;;5.57;;
55794;SDS011;41716;51.910;4.430;2023-05-07T07:50:03;12.40;;;6.93;;
55794;SDS011;41716;51.910;4.430;2023-05-07T07:55:06;9.23;;;6.72;;
55794;SDS011;41716;51.910;4.430;2023-05-07T08:00:10;9.82;;;6.10;;
55794;SDS011;41716;51.910;4.430;2023-05-07T08:05:12;7.25;;;5.40;;
55794;SDS011;41716;51.910;4.430;2023-05-07T08:10:15;9.57;;;5.78;;
55794;SDS011;41716;51.910;4.430;2023-05-07T08:15:22;7.75;;;5.97;;
55794;SDS011;41716;51.910;4.430;2023-05-07T08:20:24;8.40;;;6.37;;
55794;SDS011;41716;51.910;4.430;2023-05-07T08:25:25;10.65;;;6.38;;
55794;SDS011;41716;51.910;4.430;2023-05-07T08:30:28;10.63;;;6.60;;
55794;SDS011;41716;51.910;4.430;2023-05-07T08:35:30;10.10;;;7.00;;
55794;SDS011;41716;51.910;4.430;2023-05-07T08:40:33;9.70;;;6.90;;
55794;SDS011;41716;51.910;4.430;2023-05-07T08:45:39;11.55;;;7.40;;
55794;SDS011;41716;51.910;4.430;2023-05-07T08:50:41;10.60;;;6.20;;
55794;SDS011;41716;51.910;4.430;2023-05-07T08:55:43;14.02;;;6.82;;
55794;SDS011;41716;51.910;4.430;2023-05-07T09:00:48;9.35;;;5.70;;
55794;SDS011;41716;51.910;4.430;2023-05-07T09:05:51;9.80;;;5.68;;
55794;SDS011;41716;51.910;4.430;2023-05-07T09:10:53;13.65;;;6.50;;
55794;SDS011;41716;51.910;4.430;2023-05-07T09:15:56;10.63;;;5.70;;
55794;SDS011;41716;51.910;4.430;2023-05-07T09:20:58;9.35;;;6.20;;
55794;SDS011;41716;51.910;4.430;2023-05-07T09:26:00;9.02;;;5.93;;
55794;SDS011;41716;51.910;4.430;2023-05-07T09:31:04;9.00;;;5.57;;
55794;SDS011;41716;51.910;4.430;2023-05-07T09:36:06;10.00;;;5.75;;
55794;SDS011;41716;51.910;4.430;2023-05-07T09:41:10;9.45;;;5.07;;
55794;SDS011;41716;51.910;4.430;2023-05-07T09:46:15;7.03;;;4.07;;
55794;SDS011;41716;51.910;4.430;2023-05-07T09:51:20;8.82;;;4.15;;
55794;SDS011;41716;51.910;4.430;2023-05-07T09:56:26;8.73;;;4.32;;
55794;SDS011;41716;51.910;4.430;2023-05-07T10:01:31;7.90;;;3.88;;
55794;SDS011;41716;51.910;4.430;2023-05-07T10:06:37;8.63;;;5.18;;
55794;SDS011;41716;51.910;4.430;2023-05-07T10:11:39;7.95;;;5.05;;
55794;SDS011;41716;51.910;4.430;2023-05-07T10:16:42;8.70;;;5.10;;
55794;SDS011;41716;51.910;4.430;2023-05-07T10:21:47;12.20;;;5.00;;
55794;SDS011;41716;51.910;4.430;2023-05-07T10:26:56;9.60;;;4.97;;
55794;SDS011;41716;51.910;4.430;2023-05-07T10:32:07;10.75;;;5.43;;
55794;SDS011;41716;51.910;4.430;2023-05-07T10:37:25;7.93;;;5.28;;
55794;SDS011;41716;51.910;4.430;2023-05-07T10:42:27;7.50;;;4.93;;
55794;SDS011;41716;51.910;4.430;2023-05-07T10:47:30;8.32;;;4.68;;
55794;SDS011;41716;51.910;4.430;2023-05-07T10:52:31;7.17;;;3.83;;
55794;SDS011;41716;51.910;4.430;2023-05-07T10:57:33;5.55;;;1.83;;
55794;SDS011;41716;51.910;4.430;2023-05-07T11:08:08;8.68;;;4.10;;
55794;SDS011;41716;51.910;4.430;2023-05-07T11:13:10;9.80;;;4.43;;
55794;SDS011;41716;51.910;4.430;2023-05-07T11:18:14;11.55;;;5.50;;
55794;SDS011;41716;51.910;4.430;2023-05-07T11:28:59;9.68;;;6.57;;
55794;SDS011;41716;51.910;4.430;2023-05-07T11:34:04;8.73;;;5.22;;
55794;SDS011;41716;51.910;4.430;2023-05-07T11:44:24;9.23;;;6.47;;
55794;SDS011;41716;51.910;4.430;2023-05-07T11:49:27;12.70;;;7.25;;
55794;SDS011;41716;51.910;4.430;2023-05-07T11:54:34;10.25;;;6.40;;
55794;SDS011;41716;51.910;4.430;2023-05-07T11:59:39;8.95;;;5.93;;
55794;SDS011;41716;51.910;4.430;2023-05-07T12:04:42;9.70;;;6.63;;
55794;SDS011;41716;51.910;4.430;2023-05-07T12:09:44;11.37;;;7.40;;
55794;SDS011;41716;51.910;4.430;2023-05-07T12:14:47;11.13;;;8.15;;
55794;SDS011;41716;51.910;4.430;2023-05-07T12:19:50;11.98;;;7.70;;
55794;SDS011;41716;51.910;4.430;2023-05-07T12:24:56;12.32;;;7.85;;
55794;SDS011;41716;51.910;4.430;2023-05-07T12:29:59;15.40;;;8.60;;
55794;SDS011;41716;51.910;4.430;2023-05-07T12:35:02;10.68;;;5.65;;
55794;SDS011;41716;51.910;4.430;2023-05-07T12:40:04;13.52;;;6.80;;
55794;SDS011;41716;51.910;4.430;2023-05-07T12:45:08;12.02;;;6.10;;
55794;SDS011;41716;51.910;4.430;2023-05-07T12:50:12;10.10;;;6.22;;
55794;SDS011;41716;51.910;4.430;2023-05-07T12:55:14;11.50;;;8.00;;
55794;SDS011;41716;51.910;4.430;2023-05-07T13:00:16;10.88;;;7.40;;
55794;SDS011;41716;51.910;4.430;2023-05-07T13:05:20;15.88;;;8.73;;
55794;SDS011;41716;51.910;4.430;2023-05-07T13:10:21;13.93;;;7.63;;
55794;SDS011;41716;51.910;4.430;2023-05-07T13:15:24;14.23;;;8.00;;
55794;SDS011;41716;51.910;4.430;2023-05-07T13:20:28;13.68;;;8.20;;
55794;SDS011;41716;51.910;4.430;2023-05-07T13:25:32;12.65;;;8.02;;
55794;SDS011;41716;51.910;4.430;2023-05-07T13:30:33;14.77;;;8.13;;
55794;SDS011;41716;51.910;4.430;2023-05-07T13:35:37;13.93;;;7.97;;
55794;SDS011;41716;51.910;4.430;2023-05-07T13:40:38;12.83;;;8.53;;
55794;SDS011;41716;51.910;4.430;2023-05-07T13:45:40;17.48;;;9.07;;
55794;SDS011;41716;51.910;4.430;2023-05-07T13:50:43;14.23;;;9.32;;
55794;SDS011;41716;51.910;4.430;2023-05-07T13:55:45;15.80;;;8.63;;
55794;SDS011;41716;51.910;4.430;2023-05-07T14:00:46;16.17;;;9.70;;
55794;SDS011;41716;51.910;4.430;2023-05-07T14:05:49;15.77;;;9.57;;
55794;SDS011;41716;51.910;4.430;2023-05-07T14:10:51;19.63;;;9.35;;
55794;SDS011;41716;51.910;4.430;2023-05-07T14:15:53;22.00;;;10.50;;
55794;SDS011;41716;51.910;4.430;2023-05-07T14:20:56;17.95;;;11.13;;
55794;SDS011;41716;51.910;4.430;2023-05-07T14:25:57;17.60;;;12.43;;
55794;SDS011;41716;51.910;4.430;2023-05-07T14:30:59;18.67;;;11.68;;
55794;SDS011;41716;51.910;4.430;2023-05-07T14:36:02;21.98;;;11.73;;
55794;SDS011;41716;51.910;4.430;2023-05-07T14:41:04;20.25;;;12.40;;
55794;SDS011;41716;51.910;4.430;2023-05-07T14:46:06;18.77;;;11.63;;
55794;SDS011;41716;51.910;4.430;2023-05-07T14:51:09;20.30;;;11.43;;
55794;SDS011;41716;51.910;4.430;2023-05-07T14:56:11;24.40;;;11.87;;
55794;SDS011;41716;51.910;4.430;2023-05-07T15:01:13;22.80;;;12.18;;
55794;SDS011;41716;51.910;4.430;2023-05-07T15:06:16;23.73;;;13.15;;
55794;SDS011;41716;51.910;4.430;2023-05-07T15:11:17;20.27;;;12.43;;
55794;SDS011;41716;51.910;4.430;2023-05-07T15:16:19;21.10;;;12.05;;
55794;SDS011;41716;51.910;4.430;2023-05-07T15:21:22;21.92;;;12.57;;
55794;SDS011;41716;51.910;4.430;2023-05-07T15:26:24;24.97;;;12.47;;
55794;SDS011;41716;51.910;4.430;2023-05-07T15:31:26;21.75;;;13.35;;
55794;SDS011;41716;51.910;4.430;2023-05-07T15:36:29;22.70;;;13.25;;
55794;SDS011;41716;51.910;4.430;2023-05-07T15:41:30;24.47;;;13.03;;
55794;SDS011;41716;51.910;4.430;2023-05-07T15:46:32;26.10;;;13.60;;
55794;SDS011;41716;51.910;4.430;2023-05-07T15:51:35;20.00;;;13.07;;
55794;SDS011;41716;51.910;4.430;2023-05-07T15:56:37;25.57;;;13.57;;
55794;SDS011;41716;51.910;4.430;2023-05-07T16:01:39;23.95;;;13.25;;
55794;SDS011;41716;51.910;4.430;2023-05-07T16:06:42;22.25;;;13.05;;
55794;SDS011;41716;51.910;4.430;2023-05-07T16:11:46;24.27;;;12.57;;
55794;SDS011;41716;51.910;4.430;2023-05-07T16:16:47;23.90;;;13.15;;
55794;SDS011;41716;51.910;4.430;2023-05-07T16:21:50;22.00;;;12.82;;
55794;SDS011;41716;51.910;4.430;2023-05-07T16:26:53;25.75;;;13.60;;
55794;SDS011;41716;51.910;4.430;2023-05-07T16:31:55;20.25;;;13.55;;
55794;SDS011;41716;51.910;4.430;2023-05-07T16:36:59;22.45;;;13.75;;
55794;SDS011;41716;51.910;4.430;2023-05-07T16:42:01;22.13;;;13.13;;
55794;SDS011;41716;51.910;4.430;2023-05-07T16:47:02;21.20;;;12.57;;
55794;SDS011;41716;51.910;4.430;2023-05-07T16:52:05;22.20;;;11.95;;
55794;SDS011;41716;51.910;4.430;2023-05-07T16:57:07;19.93;;;11.90;;
55794;SDS011;41716;51.910;4.430;2023-05-07T17:02:09;19.65;;;11.07;;
55794;SDS011;41716;51.910;4.430;2023-05-07T17:07:12;23.10;;;11.90;;
55794;SDS011;41716;51.910;4.430;2023-05-07T17:12:15;17.42;;;10.95;;
55794;SDS011;41716;51.910;4.430;2023-05-07T17:17:16;17.70;;;10.40;;
55794;SDS011;41716;51.910;4.430;2023-05-07T17:22:19;17.58;;;9.60;;
55794;SDS011;41716;51.910;4.430;2023-05-07T17:27:21;15.80;;;9.53;;
55794;SDS011;41716;51.910;4.430;2023-05-07T17:32:23;16.45;;;8.90;;
55794;SDS011;41716;51.910;4.430;2023-05-07T17:37:26;12.90;;;6.95;;
55794;SDS011;41716;51.910;4.430;2023-05-07T17:42:28;13.70;;;6.47;;
55794;SDS011;41716;51.910;4.430;2023-05-07T17:47:30;12.00;;;5.97;;
55794;SDS011;41716;51.910;4.430;2023-05-07T17:52:34;13.13;;;6.75;;
55794;SDS011;41716;51.910;4.430;2023-05-07T17:57:35;14.13;;;5.90;;
55794;SDS011;41716;51.910;4.430;2023-05-07T18:02:37;10.15;;;5.30;;
55794;SDS011;41716;51.910;4.430;2023-05-07T18:07:41;8.25;;;5.03;;
55794;SDS011;41716;51.910;4.430;2023-05-07T18:12:43;10.93;;;4.87;;
55794;SDS011;41716;51.910;4.430;2023-05-07T18:17:44;16.77;;;5.82;;
55794;SDS011;41716;51.910;4.430;2023-05-07T18:22:47;10.05;;;4.43;;
55794;SDS011;41716;51.910;4.430;2023-05-07T18:27:49;10.37;;;5.00;;
55794;SDS011;41716;51.910;4.430;2023-05-07T18:32:51;10.43;;;5.10;;
55794;SDS011;41716;51.910;4.430;2023-05-07T18:37:54;10.68;;;5.03;;
55794;SDS011;41716;51.910;4.430;2023-05-07T18:42:55;7.90;;;4.70;;
55794;SDS011;41716;51.910;4.430;2023-05-07T18:47:57;16.10;;;5.53;;
55794;SDS011;41716;51.910;4.430;2023-05-07T18:53:00;10.50;;;5.25;;
55794;SDS011;41716;51.910;4.430;2023-05-07T18:58:02;11.23;;;5.57;;
55794;SDS011;41716;51.910;4.430;2023-05-07T19:03:03;10.40;;;5.35;;
55794;SDS011;41716;51.910;4.430;2023-05-07T19:08:07;12.85;;;5.50;;
55794;SDS011;41716;51.910;4.430;2023-05-07T19:13:08;8.93;;;5.50;;
55794;SDS011;41716;51.910;4.430;2023-05-07T19:18:10;14.52;;;5.82;;
55794;SDS011;41716;51.910;4.430;2023-05-07T19:23:13;13.02;;;6.03;;
55794;SDS011;41716;51.910;4.430;2023-05-07T19:28:15;13.00;;;6.30;;
55794;SDS011;41716;51.910;4.430;2023-05-07T19:33:17;11.15;;;6.80;;
55794;SDS011;41716;51.910;4.430;2023-05-07T19:38:20;14.23;;;6.95;;
55794;SDS011;41716;51.910;4.430;2023-05-07T19:43:21;15.60;;;8.20;;
55794;SDS011;41716;51.910;4.430;2023-05-07T19:48:23;19.13;;;9.02;;
55794;SDS011;41716;51.910;4.430;2023-05-07T19:53:26;23.98;;;9.82;;
55794;SDS011;41716;51.910;4.430;2023-05-07T19:58:29;15.25;;;8.90;;
55794;SDS011;41716;51.910;4.430;2023-05-07T20:03:31;14.95;;;8.90;;
55794;SDS011;41716;51.910;4.430;2023-05-07T20:08:35;17.55;;;8.75;;
55794;SDS011;41716;51.910;4.430;2023-05-07T20:13:37;21.50;;;11.13;;
55794;SDS011;41716;51.910;4.430;2023-05-07T20:18:39;20.10;;;12.02;;
55794;SDS011;41716;51.910;4.430;2023-05-07T20:23:42;22.80;;;13.48;;
55794;SDS011;41716;51.910;4.430;2023-05-07T20:28:43;19.70;;;12.43;;
55794;SDS011;41716;51.910;4.430;2023-05-07T20:33:45;19.73;;;10.85;;
55794;SDS011;41716;51.910;4.430;2023-05-07T20:38:48;16.17;;;9.65;;
55794;SDS011;41716;51.910;4.430;2023-05-07T20:43:50;18.50;;;10.25;;
55794;SDS011;41716;51.910;4.430;2023-05-07T20:48:51;18.10;;;9.50;;
55794;SDS011;41716;51.910;4.430;2023-05-07T20:53:54;20.02;;;10.40;;
55794;SDS011;41716;51.910;4.430;2023-05-07T20:58:56;18.43;;;9.73;;
55794;SDS011;41716;51.910;4.430;2023-05-07T21:03:57;17.60;;;10.02;;
55794;SDS011;41716;51.910;4.430;2023-05-07T21:09:01;15.75;;;9.27;;
55794;SDS011;41716;51.910;4.430;2023-05-07T21:14:02;19.87;;;11.20;;
55794;SDS011;41716;51.910;4.430;2023-05-07T21:19:04;17.42;;;9.63;;
55794;SDS011;41716;51.910;4.430;2023-05-07T21:24:08;19.50;;;10.05;;
55794;SDS011;41716;51.910;4.430;2023-05-07T21:29:10;17.30;;;9.85;;
55794;SDS011;41716;51.910;4.430;2023-05-07T21:34:12;20.15;;;10.80;;
55794;SDS011;41716;51.910;4.430;2023-05-07T21:39:15;21.27;;;10.35;;
55794;SDS011;41716;51.910;4.430;2023-05-07T21:44:17;17.30;;;10.63;;
55794;SDS011;41716;51.910;4.430;2023-05-07T21:49:18;15.27;;;9.88;;
55794;SDS011;41716;51.910;4.430;2023-05-07T21:54:21;18.65;;;10.93;;
55794;SDS011;41716;51.910;4.430;2023-05-07T21:59:23;17.93;;;10.20;;
55794;SDS011;41716;51.910;4.430;2023-05-07T22:04:25;20.38;;;10.88;;
55794;SDS011;41716;51.910;4.430;2023-05-07T22:09:28;17.20;;;10.35;;
55794;SDS011;41716;51.910;4.430;2023-05-07T22:14:31;21.05;;;10.60;;
55794;SDS011;41716;51.910;4.430;2023-05-07T22:19:32;21.85;;;10.45;;
55794;SDS011;41716;51.910;4.430;2023-05-07T22:24:36;22.88;;;11.68;;
55794;SDS011;41716;51.910;4.430;2023-05-07T22:29:37;18.07;;;10.33;;
55794;SDS011;41716;51.910;4.430;2023-05-07T22:34:39;15.20;;;9.75;;
55794;SDS011;41716;51.910;4.430;2023-05-07T22:39:42;20.92;;;10.20;;
55794;SDS011;41716;51.910;4.430;2023-05-07T22:44:44;21.20;;;10.73;;
55794;SDS011;41716;51.910;4.430;2023-05-07T22:49:46;22.63;;;13.35;;
55794;SDS011;41716;51.910;4.430;2023-05-07T22:54:49;25.63;;;14.50;;
55794;SDS011;41716;51.910;4.430;2023-05-07T22:59:52;21.17;;;14.10;;
55794;SDS011;41716;51.910;4.430;2023-05-07T23:04:54;22.05;;;13.60;;
55794;SDS011;41716;51.910;4.430;2023-05-07T23:10:00;32.10;;;17.80;;
55794;SDS011;41716;51.910;4.430;2023-05-07T23:15:01;33.50;;;19.57;;
55794;SDS011;41716;51.910;4.430;2023-05-07T23:20:04;31.85;;;19.33;;
55794;SDS011;41716;51.910;4.430;2023-05-07T23:25:08;33.80;;;19.75;;
55794;SDS011;41716;51.910;4.430;2023-05-07T23:30:10;30.60;;;18.58;;
55794;SDS011;41716;51.910;4.430;2023-05-07T23:35:13;32.60;;;19.30;;
55794;SDS011;41716;51.910;4.430;2023-05-07T23:40:16;36.85;;;20.95;;
55794;SDS011;41716;51.910;4.430;2023-05-07T23:45:18;31.60;;;21.07;;
55794;SDS011;41716;51.910;4.430;2023-05-07T23:50:19;36.25;;;20.80;;
55794;SDS011;41716;51.910;4.430;2023-05-07T23:55:22;35.75;;;20.90;;
